createdAt,value
2023-05-12T00:01:14.265Z,36.97
2023-05-12T00:03:41.046Z,37.40
2023-05-12T00:06:07.825Z,41.53
2023-05-12T00:08:34.203Z,42.10
2023-05-12T00:11:01.422Z,35.53
2023-05-12T00:13:29.018Z,38.20
2023-05-12T00:15:58.563Z,36.53
2023-05-12T00:18:26.204Z,41.50
2023-05-12T00:20:54.394Z,37.83
2023-05-12T00:23:22.485Z,38.03
2023-05-12T00:25:49.324Z,38.33
2023-05-12T00:28:17.532Z,37.07
2023-05-12T00:30:43.928Z,36.60
2023-05-12T00:33:10.403Z,33.47
2023-05-12T00:35:36.808Z,33.63
2023-05-12T00:38:03.591Z,30.80
2023-05-12T00:40:29.928Z,29.27
2023-05-12T00:42:56.350Z,27.17
2023-05-12T00:45:23.713Z,29.73
2023-05-12T00:47:52.227Z,28.30
2023-05-12T00:50:19.063Z,23.33
2023-05-12T00:52:46.811Z,25.17
2023-05-12T00:55:13.276Z,26.83
2023-05-12T00:57:41.252Z,25.83
2023-05-12T01:00:08.724Z,25.10
2023-05-12T01:02:36.357Z,25.50
2023-05-12T01:05:03.840Z,27.93
2023-05-12T01:07:32.900Z,28.67
2023-05-12T01:09:59.647Z,29.33
2023-05-12T01:12:27.266Z,31.53
2023-05-12T01:14:55.708Z,29.40
2023-05-12T01:17:33.421Z,28.87
2023-05-12T01:20:05.935Z,31.93
2023-05-12T01:22:33.685Z,32.43
2023-05-12T01:25:03.701Z,33.30
2023-05-12T01:27:31.456Z,31.57
2023-05-12T01:30:00.380Z,38.43
2023-05-12T01:32:27.022Z,38.53
2023-05-12T01:34:53.584Z,36.23
2023-05-12T01:37:20.021Z,33.43
2023-05-12T01:39:46.524Z,38.13
2023-05-12T01:42:13.115Z,34.57
2023-05-12T01:44:39.474Z,35.63
2023-05-12T01:47:09.850Z,36.47
2023-05-12T01:49:36.279Z,40.83
2023-05-12T01:52:02.911Z,36.47
2023-05-12T01:54:29.604Z,44.83
2023-05-12T01:56:55.984Z,40.97
2023-05-12T01:59:22.386Z,38.20
2023-05-12T02:01:48.944Z,37.03
2023-05-12T02:04:15.392Z,34.97
2023-05-12T02:06:41.840Z,38.17
2023-05-12T02:09:08.261Z,37.17
2023-05-12T02:11:34.588Z,34.07
2023-05-12T02:14:00.920Z,37.90
2023-05-12T02:16:27.367Z,35.13
2023-05-12T02:18:53.789Z,32.40
2023-05-12T02:21:20.210Z,30.40
2023-05-12T02:23:46.812Z,32.83
2023-05-12T02:26:13.252Z,34.83
2023-05-12T02:28:40.908Z,28.93
2023-05-12T02:31:07.365Z,29.37
2023-05-12T02:33:33.722Z,30.53
2023-05-12T02:36:00.164Z,28.13
2023-05-12T02:38:27.367Z,28.37
2023-05-12T02:40:53.674Z,26.20
2023-05-12T02:43:20.000Z,25.47
2023-05-12T02:45:49.021Z,25.47
2023-05-12T02:48:15.463Z,24.40
2023-05-12T02:50:41.873Z,24.80
2023-05-12T02:53:08.287Z,18.93
2023-05-12T02:55:34.713Z,19.07
2023-05-12T02:58:01.606Z,18.40
2023-05-12T03:00:28.067Z,13.87
2023-05-12T03:02:54.511Z,16.53
2023-05-12T03:05:20.981Z,14.30
2023-05-12T03:07:50.145Z,9.17
2023-05-12T03:10:18.230Z,10.50
2023-05-12T03:12:44.828Z,8.80
2023-05-12T03:15:11.454Z,7.87
2023-05-12T03:17:37.996Z,7.50
2023-05-12T03:20:05.142Z,8.03
2023-05-12T03:22:31.636Z,7.57
2023-05-12T03:24:58.262Z,6.87
2023-05-12T03:27:24.768Z,7.27
2023-05-12T03:29:51.872Z,6.93
2023-05-12T03:32:18.332Z,5.90
2023-05-12T03:34:44.752Z,6.47
2023-05-12T03:37:11.103Z,6.50
2023-05-12T03:39:37.434Z,6.77
2023-05-12T03:42:03.991Z,6.80
2023-05-12T03:44:30.444Z,7.17
2023-05-12T03:46:56.886Z,8.03
2023-05-12T03:49:23.318Z,6.87
2023-05-12T03:51:49.927Z,6.60
2023-05-12T03:54:16.304Z,7.20
2023-05-12T03:56:42.685Z,6.27
2023-05-12T03:59:09.318Z,11.47
2023-05-12T04:01:35.674Z,7.23
2023-05-12T04:04:02.092Z,6.07
2023-05-12T04:06:28.846Z,7.73
2023-05-12T04:08:55.204Z,5.70
2023-05-12T04:11:21.532Z,7.10
2023-05-12T04:13:47.950Z,4.90
2023-05-12T04:16:14.373Z,4.93
2023-05-12T04:18:41.033Z,4.63
2023-05-12T04:21:07.417Z,4.40
2023-05-12T04:23:33.816Z,6.27
2023-05-12T04:26:03.765Z,4.60
2023-05-12T04:28:30.111Z,6.67
2023-05-12T04:30:56.586Z,7.53
2023-05-12T04:33:22.945Z,4.83
2023-05-12T04:35:49.264Z,4.43
2023-05-12T04:38:15.780Z,3.67
2023-05-12T04:40:42.327Z,4.43
2023-05-12T04:43:08.705Z,3.13
2023-05-12T04:45:35.281Z,3.93
2023-05-12T04:48:01.639Z,3.83
2023-05-12T04:50:28.039Z,3.30
2023-05-12T04:52:54.449Z,2.87
2023-05-12T04:55:21.129Z,4.20
2023-05-12T04:57:47.711Z,3.60
2023-05-12T05:00:14.965Z,2.60
2023-05-12T05:02:41.508Z,5.90
2023-05-12T05:05:08.375Z,3.87
2023-05-12T05:07:34.836Z,3.57
2023-05-12T05:10:01.311Z,3.43
2023-05-12T05:12:27.670Z,3.60
2023-05-12T05:14:54.200Z,4.23
2023-05-12T05:17:20.701Z,4.17
2023-05-12T05:19:57.867Z,3.60
2023-05-12T05:22:25.537Z,3.30
2023-05-12T05:24:52.076Z,3.23
2023-05-12T05:27:18.735Z,4.30
2023-05-12T05:29:45.165Z,3.50
2023-05-12T05:32:11.605Z,3.33
2023-05-12T05:34:39.416Z,5.50
2023-05-12T05:37:06.018Z,3.80
2023-05-12T05:39:32.468Z,4.70
2023-05-12T05:41:58.785Z,4.37
2023-05-12T05:44:25.463Z,3.93
2023-05-12T05:46:52.163Z,3.67
2023-05-12T05:49:18.912Z,5.37
2023-05-12T05:51:45.352Z,3.47
2023-05-12T05:54:11.963Z,3.80
2023-05-12T05:56:38.410Z,5.03
2023-05-12T05:59:05.203Z,4.47
2023-05-12T06:01:32.426Z,4.23
2023-05-12T06:03:59.023Z,5.53
2023-05-12T06:06:25.427Z,12.07
2023-05-12T06:08:51.801Z,7.63
2023-05-12T06:11:18.275Z,4.03
2023-05-12T06:13:44.678Z,5.80
2023-05-12T06:16:11.089Z,4.23
2023-05-12T06:18:37.882Z,3.90
2023-05-12T06:21:05.530Z,4.07
2023-05-12T06:23:32.534Z,5.53
2023-05-12T06:25:59.167Z,3.90
2023-05-12T06:28:25.652Z,3.93
2023-05-12T06:30:52.023Z,4.10
2023-05-12T06:33:18.440Z,3.90
2023-05-12T06:35:44.862Z,6.07
2023-05-12T06:38:11.213Z,3.37
2023-05-12T06:40:37.525Z,4.20
2023-05-12T06:43:04.106Z,3.87
2023-05-12T06:45:30.690Z,3.50
2023-05-12T06:47:57.681Z,3.47
2023-05-12T06:50:24.159Z,3.23
2023-05-12T06:52:51.067Z,5.93
2023-05-12T06:55:20.501Z,3.70
2023-05-12T06:57:47.615Z,5.10
2023-05-12T07:00:14.569Z,3.73
2023-05-12T07:02:41.240Z,3.30
2023-05-12T07:05:08.107Z,3.43
2023-05-12T07:07:35.862Z,3.30
2023-05-12T07:10:02.188Z,3.10
2023-05-12T07:12:28.622Z,3.23
2023-05-12T07:14:54.978Z,2.93
2023-05-12T07:17:21.630Z,2.60
2023-05-12T07:19:48.151Z,4.47
2023-05-12T07:22:14.686Z,3.63
2023-05-12T07:24:41.564Z,3.17
2023-05-12T07:27:08.250Z,2.83
2023-05-12T07:29:34.922Z,3.30
2023-05-12T07:32:01.464Z,3.00
2023-05-12T07:34:28.015Z,4.10
2023-05-12T07:36:54.351Z,2.70
2023-05-12T07:39:23.579Z,2.40
2023-05-12T07:41:50.928Z,2.13
2023-05-12T07:44:17.317Z,3.43
2023-05-12T07:46:43.852Z,3.63
2023-05-12T07:49:10.346Z,3.17
2023-05-12T07:51:37.027Z,2.40
2023-05-12T07:54:04.674Z,3.10
2023-05-12T07:56:31.055Z,3.00
2023-05-12T07:58:57.472Z,4.10
2023-05-12T08:01:24.164Z,3.17
2023-05-12T08:03:53.643Z,4.27
2023-05-12T08:06:20.034Z,2.30
2023-05-12T08:08:46.403Z,2.63
2023-05-12T08:11:13.509Z,2.67
2023-05-12T08:13:39.888Z,2.67
2023-05-12T08:16:06.328Z,2.60
2023-05-12T08:18:32.731Z,2.37
2023-05-12T08:20:59.166Z,2.60
2023-05-12T08:23:25.620Z,2.47
2023-05-12T08:25:52.065Z,3.67
2023-05-12T08:28:18.552Z,3.83
2023-05-12T08:30:45.465Z,2.40
2023-05-12T08:33:12.600Z,2.97
2023-05-12T08:35:39.789Z,2.40
2023-05-12T08:38:06.600Z,2.20
2023-05-12T08:40:45.103Z,3.10
2023-05-12T08:43:26.224Z,3.00
2023-05-12T08:45:59.338Z,2.63
2023-05-12T08:48:27.920Z,5.27
2023-05-12T08:50:54.841Z,3.93
2023-05-12T08:53:24.982Z,2.87
2023-05-12T08:57:09.533Z,2.80
2023-05-12T08:58:42.109Z,3.00
2023-05-12T09:01:11.572Z,2.90
2023-05-12T09:03:39.009Z,2.50
2023-05-12T09:06:06.683Z,2.23
2023-05-12T09:08:35.244Z,4.90
2023-05-12T09:11:02.421Z,2.47
2023-05-12T09:13:50.754Z,2.93
2023-05-12T09:16:23.551Z,2.40
2023-05-12T09:18:53.226Z,3.43
2023-05-12T09:21:20.740Z,2.63
2023-05-12T09:23:57.392Z,2.43
2023-05-12T09:26:25.400Z,2.57
2023-05-12T09:29:03.601Z,2.57
2023-05-12T09:31:30.031Z,8.03
2023-05-12T09:33:58.209Z,4.43
2023-05-12T09:36:25.549Z,4.73
2023-05-12T09:39:04.699Z,2.50
2023-05-12T09:41:34.686Z,2.60
2023-05-12T09:44:01.261Z,2.80
2023-05-12T09:46:28.196Z,2.10
2023-05-12T09:48:58.598Z,2.73
2023-05-12T09:51:26.634Z,2.20
2023-05-12T09:53:53.048Z,2.67
2023-05-12T09:56:19.683Z,2.63
2023-05-12T09:58:47.727Z,2.37
2023-05-12T10:01:23.295Z,9.47
2023-05-12T10:03:56.292Z,3.83
2023-05-12T10:06:30.018Z,3.63
2023-05-12T10:09:13.605Z,2.53
2023-05-12T10:11:41.105Z,5.83
2023-05-12T10:14:09.706Z,2.23
2023-05-12T10:16:36.576Z,2.93
2023-05-12T10:19:04.486Z,2.20
2023-05-12T10:21:32.049Z,5.10
2023-05-12T10:23:59.230Z,2.70
2023-05-12T10:26:25.948Z,2.23
2023-05-12T10:28:53.335Z,4.23
2023-05-12T10:31:20.547Z,2.40
2023-05-12T10:34:00.408Z,2.60
2023-05-12T10:36:27.253Z,2.40
2023-05-12T10:38:54.741Z,2.50
2023-05-12T10:41:32.074Z,3.30
2023-05-12T10:43:58.745Z,3.83
2023-05-12T10:46:27.067Z,2.30
2023-05-12T10:48:55.091Z,2.13
2023-05-12T10:51:28.263Z,3.53
2023-05-12T10:54:02.474Z,3.43
2023-05-12T10:56:31.416Z,2.47
2023-05-12T10:59:19.206Z,2.60
2023-05-12T11:02:05.793Z,6.03
2023-05-12T11:04:46.642Z,2.70
2023-05-12T11:07:16.494Z,2.83
2023-05-12T11:09:56.514Z,3.40
2023-05-12T11:12:26.696Z,6.93
2023-05-12T11:14:54.166Z,2.63
2023-05-12T11:17:20.609Z,4.33
2023-05-12T11:19:50.383Z,2.33
2023-05-12T11:22:19.790Z,2.80
2023-05-12T11:24:47.089Z,2.97
2023-05-12T11:27:19.075Z,2.20
2023-05-12T11:29:55.337Z,4.13
2023-05-12T11:32:21.708Z,3.37
2023-05-12T11:34:48.564Z,2.03
2023-05-12T11:37:15.107Z,4.03
2023-05-12T11:39:41.781Z,2.10
2023-05-12T11:42:13.535Z,3.87
2023-05-12T11:44:48.413Z,3.13
2023-05-12T11:47:16.042Z,2.00
2023-05-12T11:49:49.167Z,7.17
2023-05-12T11:52:16.269Z,3.00
2023-05-12T11:54:52.790Z,2.40
2023-05-12T11:57:27.471Z,2.53
2023-05-12T12:00:07.932Z,2.30
2023-05-12T12:02:35.869Z,3.00
2023-05-12T12:05:02.435Z,2.40
2023-05-12T12:07:34.132Z,2.53
2023-05-12T12:10:18.651Z,3.43
2023-05-12T12:12:46.048Z,2.60
2023-05-12T12:15:12.992Z,5.40
2023-05-12T12:17:40.342Z,3.37
2023-05-12T12:20:08.308Z,6.63
2023-05-12T12:22:35.154Z,2.60
2023-05-12T12:25:02.452Z,2.40
2023-05-12T12:27:28.866Z,2.37
2023-05-12T12:29:55.260Z,2.50
2023-05-12T12:32:21.637Z,2.93
2023-05-12T12:34:49.124Z,2.50
2023-05-12T12:37:16.064Z,2.93
2023-05-12T12:39:42.668Z,3.90
2023-05-12T12:42:09.464Z,2.87
2023-05-12T12:44:35.958Z,4.83
2023-05-12T12:47:02.427Z,3.00
2023-05-12T12:49:28.891Z,4.60
2023-05-12T12:51:55.695Z,2.70
2023-05-12T12:54:22.172Z,2.50
2023-05-12T12:56:48.494Z,2.57
2023-05-12T12:59:14.935Z,2.67
2023-05-12T13:01:41.476Z,3.07
2023-05-12T13:04:07.796Z,3.30
2023-05-12T13:06:34.703Z,2.40
2023-05-12T13:09:01.669Z,3.83
2023-05-12T13:11:28.165Z,4.20
2023-05-12T13:13:54.557Z,3.03
2023-05-12T13:16:21.088Z,3.63
2023-05-12T13:18:47.492Z,3.43
2023-05-12T13:21:14.041Z,1.90
2023-05-12T13:23:40.468Z,3.40
2023-05-12T13:26:06.763Z,6.03
2023-05-12T13:28:33.284Z,2.30
2023-05-12T13:30:59.680Z,2.20
2023-05-12T13:33:26.116Z,2.97
2023-05-12T13:35:52.474Z,3.23
2023-05-12T13:38:19.765Z,2.77
2023-05-12T13:40:46.300Z,5.50
2023-05-12T13:43:12.907Z,4.40
2023-05-12T13:45:39.410Z,5.50
2023-05-12T13:48:06.081Z,2.00
2023-05-12T13:50:33.693Z,2.20
2023-05-12T13:53:00.483Z,3.83
2023-05-12T13:55:27.396Z,2.10
2023-05-12T13:57:53.919Z,3.37
2023-05-12T14:00:20.508Z,4.10
2023-05-12T14:02:46.916Z,2.50
2023-05-12T14:05:13.378Z,2.23
2023-05-12T14:07:39.873Z,2.50
2023-05-12T14:10:07.105Z,2.57
2023-05-12T14:12:33.577Z,3.47
2023-05-12T14:15:19.341Z,5.33
2023-05-12T14:17:46.503Z,5.83
2023-05-12T14:20:13.009Z,4.00
2023-05-12T14:22:39.446Z,3.27
2023-05-12T14:25:06.362Z,2.40
2023-05-12T14:27:32.773Z,2.80
2023-05-12T14:29:59.169Z,3.03
2023-05-12T14:32:25.583Z,2.47
2023-05-12T14:34:52.129Z,3.60
2023-05-12T14:37:18.489Z,10.17
2023-05-12T14:39:44.935Z,5.63
2023-05-12T14:42:11.465Z,3.37
2023-05-12T14:44:38.006Z,4.03
2023-05-12T14:47:05.505Z,2.50
2023-05-12T14:49:32.911Z,2.60
2023-05-12T14:51:59.248Z,2.83
2023-05-12T14:54:26.183Z,2.53
2023-05-12T14:56:53.062Z,3.10
2023-05-12T14:59:19.556Z,3.23
2023-05-12T15:01:46.077Z,4.93
2023-05-12T15:04:13.229Z,2.57
2023-05-12T15:06:39.817Z,2.83
2023-05-12T15:09:06.800Z,2.33
2023-05-12T15:11:33.281Z,2.70
2023-05-12T15:13:59.603Z,2.80
2023-05-12T15:16:27.875Z,3.63
2023-05-12T15:18:55.400Z,2.10
2023-05-12T15:21:22.238Z,2.30
2023-05-12T15:23:49.321Z,6.03
2023-05-12T15:26:31.346Z,2.37
2023-05-12T15:28:59.796Z,2.40
2023-05-12T15:31:28.824Z,3.97
2023-05-12T15:33:56.552Z,2.37
2023-05-12T15:36:23.149Z,4.17
2023-05-12T15:38:49.523Z,2.97
2023-05-12T15:41:15.962Z,2.30
2023-05-12T15:43:42.472Z,4.30
2023-05-12T15:46:10.743Z,5.13
2023-05-12T15:48:37.611Z,2.80
2023-05-12T15:51:04.420Z,4.10
2023-05-12T15:53:31.291Z,2.63
2023-05-12T15:56:01.927Z,5.03
2023-05-12T15:58:28.581Z,5.30
2023-05-12T16:00:55.758Z,3.07
2023-05-12T16:03:22.945Z,4.90
2023-05-12T16:05:49.791Z,2.97
2023-05-12T16:08:16.231Z,3.30
2023-05-12T16:10:42.575Z,2.93
2023-05-12T16:13:08.949Z,3.67
2023-05-12T16:15:35.847Z,2.40
2023-05-12T16:18:02.458Z,6.10
2023-05-12T16:20:29.745Z,2.43
2023-05-12T16:22:56.239Z,2.10
2023-05-12T16:25:23.058Z,5.47
2023-05-12T16:27:50.048Z,2.60
2023-05-12T16:30:19.775Z,2.80
2023-05-12T16:32:47.233Z,2.83
2023-05-12T16:35:13.955Z,3.10
2023-05-12T16:37:40.388Z,2.63
2023-05-12T16:40:07.625Z,3.77
2023-05-12T16:42:34.008Z,2.70
2023-05-12T16:45:00.426Z,2.60
2023-05-12T16:47:26.887Z,3.17
2023-05-12T16:49:53.515Z,3.73
2023-05-12T16:52:20.306Z,3.70
2023-05-12T16:54:47.036Z,2.63
2023-05-12T16:57:13.399Z,5.40
2023-05-12T16:59:39.826Z,3.83
2023-05-12T17:02:06.847Z,3.07
2023-05-12T17:04:33.241Z,3.00
2023-05-12T17:06:59.784Z,4.73
2023-05-12T17:09:26.153Z,3.20
2023-05-12T17:11:52.540Z,3.73
2023-05-12T17:14:19.557Z,4.70
2023-05-12T17:16:46.575Z,3.70
2023-05-12T17:19:14.562Z,10.53
2023-05-12T17:21:42.440Z,2.33
2023-05-12T17:24:08.918Z,2.73
2023-05-12T17:26:35.689Z,3.70
2023-05-12T17:29:02.348Z,3.73
2023-05-12T17:31:28.838Z,3.93
2023-05-12T17:33:55.425Z,9.60
2023-05-12T17:36:22.028Z,3.50
2023-05-12T17:38:50.567Z,4.60
2023-05-12T17:41:17.041Z,5.87
2023-05-12T17:43:43.525Z,3.10
2023-05-12T17:46:10.263Z,5.20
2023-05-12T17:48:38.247Z,8.70
2023-05-12T17:51:04.870Z,6.00
2023-05-12T17:53:31.981Z,5.63
2023-05-12T17:55:59.407Z,8.53
2023-05-12T17:58:26.241Z,5.07
2023-05-12T18:00:53.072Z,4.30
2023-05-12T18:03:23.966Z,4.53
2023-05-12T18:05:52.576Z,6.20
2023-05-12T18:08:19.067Z,7.40
2023-05-12T18:10:46.682Z,6.60
2023-05-12T18:13:14.488Z,5.00
2023-05-12T18:15:41.639Z,6.13
2023-05-12T18:18:08.725Z,6.23
2023-05-12T18:20:35.252Z,4.27
2023-05-12T18:23:01.664Z,7.43
2023-05-12T18:25:28.083Z,5.60
2023-05-12T18:27:54.462Z,6.93
2023-05-12T18:30:21.089Z,5.57
2023-05-12T18:32:47.953Z,6.50
2023-05-12T18:35:14.359Z,5.20
2023-05-12T18:37:40.695Z,8.20
2023-05-12T18:40:07.755Z,6.13
2023-05-12T18:42:34.845Z,5.77
2023-05-12T18:45:01.321Z,5.57
2023-05-12T18:47:27.702Z,6.47
2023-05-12T18:49:54.152Z,7.47
2023-05-12T18:52:21.195Z,6.57
2023-05-12T18:54:49.589Z,6.97
2023-05-12T18:57:16.499Z,9.13
2023-05-12T18:59:42.978Z,6.73
2023-05-12T19:02:09.588Z,6.73
2023-05-12T19:04:36.026Z,9.70
2023-05-12T19:07:02.351Z,8.50
2023-05-12T19:09:28.733Z,7.90
2023-05-12T19:11:55.094Z,7.23
2023-05-12T19:14:21.517Z,7.83
2023-05-12T19:16:48.372Z,8.63
2023-05-12T19:19:14.932Z,6.47
2023-05-12T19:21:41.329Z,6.73
2023-05-12T19:24:08.478Z,6.73
2023-05-12T19:26:34.893Z,6.43
2023-05-12T19:29:01.953Z,6.57
2023-05-12T19:31:28.625Z,6.37
2023-05-12T19:33:54.970Z,7.23
2023-05-12T19:36:21.390Z,5.60
2023-05-12T19:38:47.913Z,5.47
2023-05-12T19:41:14.296Z,5.60
2023-05-12T19:43:40.686Z,6.33
2023-05-12T19:46:07.505Z,5.93
2023-05-12T19:48:33.906Z,6.47
2023-05-12T19:51:00.361Z,6.40
2023-05-12T19:53:26.894Z,6.77
2023-05-12T19:55:53.659Z,8.63
2023-05-12T19:58:20.038Z,6.50
2023-05-12T20:00:46.511Z,10.90
2023-05-12T20:03:13.037Z,6.77
2023-05-12T20:05:40.989Z,7.17
2023-05-12T20:08:07.402Z,6.53
2023-05-12T20:10:33.804Z,6.20
2023-05-12T20:13:03.341Z,6.10
2023-05-12T20:15:34.218Z,7.80
2023-05-12T20:18:00.874Z,6.23
2023-05-12T20:20:27.235Z,6.80
2023-05-12T20:22:54.576Z,7.13
2023-05-12T20:25:21.074Z,6.37
2023-05-12T20:27:48.264Z,7.30
2023-05-12T20:30:14.743Z,7.87
2023-05-12T20:32:41.228Z,6.33
2023-05-12T20:35:08.126Z,8.80
2023-05-12T20:37:34.579Z,6.37
2023-05-12T20:40:01.247Z,8.93
2023-05-12T20:42:27.666Z,8.50
2023-05-12T20:44:54.368Z,6.70
2023-05-12T20:47:20.739Z,9.07
2023-05-12T20:49:47.190Z,7.47
2023-05-12T20:52:13.668Z,7.03
2023-05-12T20:54:40.015Z,6.60
2023-05-12T20:57:06.334Z,7.20
2023-05-12T20:59:32.805Z,6.90
2023-05-12T21:01:59.285Z,7.83
2023-05-12T21:04:25.911Z,9.37
2023-05-12T21:06:53.799Z,8.33
2023-05-12T21:09:20.317Z,6.90
2023-05-12T21:11:47.115Z,6.97
2023-05-12T21:14:13.588Z,7.90
2023-05-12T21:16:40.015Z,7.10
2023-05-12T21:19:06.620Z,7.83
2023-05-12T21:21:33.121Z,7.77
2023-05-12T21:23:59.468Z,7.47
2023-05-12T21:26:26.855Z,9.23
2023-05-12T21:28:53.194Z,8.90
2023-05-12T21:31:19.519Z,7.60
2023-05-12T21:33:45.991Z,7.70
2023-05-12T21:36:12.388Z,8.37
2023-05-12T21:38:38.750Z,8.57
2023-05-12T21:41:05.426Z,8.63
2023-05-12T21:43:31.834Z,8.03
2023-05-12T21:46:02.375Z,8.23
2023-05-12T21:48:28.934Z,10.23
2023-05-12T21:50:59.851Z,8.23
2023-05-12T21:53:26.424Z,7.93
2023-05-12T21:55:53.126Z,7.90
2023-05-12T21:58:19.631Z,8.13
2023-05-12T22:00:45.999Z,8.43
2023-05-12T22:03:12.573Z,7.93
2023-05-12T22:05:39.047Z,9.37
2023-05-12T22:08:06.286Z,8.80
2023-05-12T22:10:32.811Z,7.90
2023-05-12T22:12:59.187Z,11.10
2023-05-12T22:15:25.540Z,9.50
2023-05-12T22:17:52.206Z,9.77
2023-05-12T22:20:19.036Z,11.00
2023-05-12T22:22:45.606Z,8.53
2023-05-12T22:25:12.011Z,8.80
2023-05-12T22:27:38.436Z,9.13
2023-05-12T22:30:05.336Z,7.63
2023-05-12T22:32:31.886Z,8.10
2023-05-12T22:34:58.385Z,7.40
2023-05-12T22:37:25.058Z,9.83
2023-05-12T22:39:51.448Z,9.20
2023-05-12T22:42:17.775Z,11.77
2023-05-12T22:44:44.530Z,7.83
2023-05-12T22:47:11.145Z,10.30
2023-05-12T22:49:37.766Z,7.83
2023-05-12T22:52:05.545Z,10.23
2023-05-12T22:54:31.946Z,7.97
2023-05-12T22:56:58.308Z,8.40
2023-05-12T22:59:24.677Z,9.47
2023-05-12T23:01:51.659Z,7.60
2023-05-12T23:04:18.183Z,8.27
2023-05-12T23:06:44.550Z,7.60
2023-05-12T23:09:10.936Z,7.63
2023-05-12T23:11:37.275Z,7.70
2023-05-12T23:14:03.668Z,11.27
2023-05-12T23:16:30.241Z,10.00
2023-05-12T23:18:56.646Z,9.10
2023-05-12T23:21:23.076Z,9.43
2023-05-12T23:23:49.584Z,8.70
2023-05-12T23:26:15.962Z,9.53
2023-05-12T23:28:42.336Z,8.83
2023-05-12T23:31:08.756Z,8.77
2023-05-12T23:33:35.500Z,8.57
2023-05-12T23:36:01.997Z,10.10
2023-05-12T23:38:28.400Z,10.80
2023-05-12T23:40:54.847Z,8.77
2023-05-12T23:43:21.168Z,8.70
2023-05-12T23:45:47.797Z,9.07
2023-05-12T23:48:14.164Z,9.50
2023-05-12T23:50:40.582Z,9.47
2023-05-12T23:53:07.033Z,9.23
2023-05-12T23:55:33.451Z,9.20
2023-05-12T23:57:59.932Z,9.07
